Time;durP1;ratioP1;P1;durP2;ratioP2;P2;SDS_P1;SDS_P2;PMS_P1;PMS_P2;Temp;Humidity;BMP_temperature;BMP_pressure;BME280_temperature;BME280_humidity;BME280_pressure;Samples;Min_cycle;Max_cycle;Signal;HPM_P1;HPM_P2
2023/10/09 00:01:31;;;;;;;10.35;2.80;;;;;;;;;;5056215;28;20025;-60
2023/10/09 00:04:01;;;;;;;8.45;3.03;;;;;;;;;;5056489;28;20047;-60
2023/10/09 00:06:39;;;;;;;6.35;2.83;;;;;;;;;;5056269;28;20045;-60
2023/10/09 00:11:54;;;;;;;9.45;3.33;;;;;;;;;;5055758;28;20033;-60
2023/10/09 00:14:19;;;;;;;;;;;;;;;;;;5056615;28;20029;-60
2023/10/09 00:16:49;;;;;;;8.10;3.30;;;;;;;;;;5055525;28;19909;-60
2023/10/09 00:19:26;;;;;;;7.68;2.97;;;;;;;;;;5055407;28;20021;-60
2023/10/09 00:21:55;;;;;;;10.57;3.33;;;;;;;;;;5055962;28;20040;-60
2023/10/09 00:24:24;;;;;;;11.95;3.47;;;;;;;;;;5056155;28;20033;-60
2023/10/09 00:27:07;;;;;;;14.98;3.08;;;;;;;;;;5055686;28;20029;-60
2023/10/09 00:29:34;;;;;;;4.97;3.15;;;;;;;;;;5056115;28;20025;-60
2023/10/09 00:32:06;;;;;;;7.20;3.25;;;;;;;;;;5055786;28;20040;-60
2023/10/09 00:34:39;;;;;;;12.30;3.47;;;;;;;;;;5055051;28;20518;-60
2023/10/09 00:37:10;;;;;;;6.75;3.30;;;;;;;;;;5055722;28;20029;-60
2023/10/09 00:42:06;;;;;;;7.53;2.97;;;;;;;;;;5055384;28;20061;-60
2023/10/09 00:44:38;;;;;;;14.50;4.00;;;;;;;;;;5055521;28;20025;-60
2023/10/09 00:47:20;;;;;;;8.57;3.85;;;;;;;;;;5054965;28;20051;-60
2023/10/09 00:49:46;;;;;;;15.63;4.05;;;;;;;;;;5055512;28;20029;-60
2023/10/09 00:52:20;;;;;;;7.70;2.83;;;;;;;;;;5055461;28;20036;-60
2023/10/09 00:54:51;;;;;;;6.82;2.97;;;;;;;;;;5055312;28;20071;-60
2023/10/09 00:57:18;;;;;;;7.75;2.65;;;;;;;;;;5055355;28;20359;-60
2023/10/09 00:59:46;;;;;;;6.43;2.47;;;;;;;;;;5054679;28;20021;-60
2023/10/09 01:02:18;;;;;;;9.35;3.42;;;;;;;;;;5055160;28;20147;-60
2023/10/09 01:04:45;;;;;;;13.18;3.80;;;;;;;;;;5055485;28;20367;-60
2023/10/09 01:07:21;;;;;;;7.47;3.65;;;;;;;;;;5054549;28;20131;-60
2023/10/09 01:09:50;;;;;;;5.80;2.60;;;;;;;;;;5055089;28;20029;-60
2023/10/09 01:12:19;;;;;;;10.05;3.65;;;;;;;;;;5053863;28;20379;-60
2023/10/09 01:14:46;;;;;;;7.63;3.03;;;;;;;;;;5054340;28;20055;-60
2023/10/09 01:17:12;;;;;;;6.13;3.15;;;;;;;;;;5055163;28;20033;-60
2023/10/09 01:19:38;;;;;;;7.05;3.15;;;;;;;;;;5054968;28;20025;-60
2023/10/09 01:22:12;;;;;;;8.90;3.50;;;;;;;;;;5053964;28;20132;-60
2023/10/09 01:24:39;;;;;;;14.13;3.92;;;;;;;;;;5054804;28;20048;-60
2023/10/09 01:27:11;;;;;;;7.88;2.42;;;;;;;;;;5054998;28;20389;-60
2023/10/09 01:29:37;;;;;;;7.63;3.78;;;;;;;;;;5054842;28;20029;-60
2023/10/09 01:32:03;;;;;;;8.32;3.60;;;;;;;;;;5054384;28;20111;-60
2023/10/09 01:34:49;;;;;;;7.32;2.72;;;;;;;;;;5053752;28;20049;-60
2023/10/09 01:37:18;;;;;;;11.40;3.42;;;;;;;;;;5054088;28;20025;-60
2023/10/09 01:39:45;;;;;;;14.65;3.92;;;;;;;;;;5054107;28;20032;-60
2023/10/09 01:42:23;;;;;;;6.88;2.75;;;;;;;;;;5054520;28;20065;-60
2023/10/09 01:44:49;;;;;;;4.60;2.95;;;;;;;;;;5054235;28;20082;-60
2023/10/09 01:47:18;;;;;;;9.68;3.92;;;;;;;;;;5054164;28;20064;-60
2023/10/09 01:49:44;;;;;;;10.25;4.13;;;;;;;;;;5054687;28;20017;-60
2023/10/09 01:52:16;;;;;;;6.55;2.85;;;;;;;;;;5053817;28;20013;-60
2023/10/09 01:54:48;;;;;;;8.25;3.65;;;;;;;;;;5054536;28;20024;-60
2023/10/09 01:57:24;;;;;;;7.07;2.35;;;;;;;;;;5054091;28;20163;-60
2023/10/09 01:59:53;;;;;;;8.30;2.67;;;;;;;;;;5053913;28;20491;-60
2023/10/09 02:04:45;;;;;;;5.55;2.55;;;;;;;;;;5053642;28;20114;-60
2023/10/09 02:07:12;;;;;;;9.15;3.30;;;;;;;;;;5053866;28;20021;-60
2023/10/09 02:09:46;;;;;;;5.32;2.72;;;;;;;;;;5053879;28;20082;-60
2023/10/09 02:12:12;;;;;;;12.23;3.38;;;;;;;;;;5054138;28;20057;-60
2023/10/09 02:14:41;;;;;;;5.60;3.00;;;;;;;;;;5053489;28;20373;-60
2023/10/09 02:17:28;;;;;;;16.73;2.88;;;;;;;;;;5053456;28;20037;-60
2023/10/09 02:19:54;;;;;;;11.57;4.22;;;;;;;;;;5054049;28;20017;-60
2023/10/09 02:22:25;;;;;;;10.15;3.17;;;;;;;;;;5053724;28;20344;-60
2023/10/09 02:24:57;;;;;;;4.82;2.67;;;;;;;;;;5053030;28;20033;-60
2023/10/09 02:30:15;;;;;;;5.75;2.85;;;;;;;;;;5053712;28;20044;-60
2023/10/09 02:32:42;;;;;;;8.35;3.70;;;;;;;;;;5054117;28;20406;-60
2023/10/09 02:35:19;;;;;;;7.63;3.03;;;;;;;;;;5053587;28;20099;-60
2023/10/09 02:37:47;;;;;;;11.07;3.17;;;;;;;;;;5053030;28;20487;-60
2023/10/09 02:40:22;;;;;;;6.20;2.58;;;;;;;;;;5054176;28;20025;-60
2023/10/09 02:42:49;;;;;;;5.18;2.33;;;;;;;;;;5053631;28;20079;-60
2023/10/09 02:45:17;;;;;;;8.57;2.17;;;;;;;;;;5053765;28;20067;-60
2023/10/09 02:47:48;;;;;;;12.73;3.17;;;;;;;;;;5053172;28;20076;-60
2023/10/09 02:50:20;;;;;;;9.32;3.13;;;;;;;;;;5053250;28;20025;-60
2023/10/09 02:52:47;;;;;;;14.80;3.40;;;;;;;;;;5053202;28;20521;-60
2023/10/09 02:55:16;;;;;;;8.48;2.28;;;;;;;;;;5053061;28;20037;-60
2023/10/09 02:57:45;;;;;;;9.93;3.05;;;;;;;;;;5053886;28;20367;-60
2023/10/09 03:00:18;;;;;;;6.07;2.78;;;;;;;;;;5053658;28;20036;-60
2023/10/09 03:02:49;;;;;;;10.18;2.38;;;;;;;;;;5053531;28;20408;-60
2023/10/09 03:05:15;;;;;;;;;;;;;;;;;;5054279;28;20071;-60
2023/10/09 03:07:42;;;;;;;10.98;2.47;;;;;;;;;;5053094;28;19935;-60
2023/10/09 03:10:10;;;;;;;7.05;3.00;;;;;;;;;;5053569;28;20348;-60
2023/10/09 03:12:39;;;;;;;7.45;2.85;;;;;;;;;;5053802;28;20025;-60
2023/10/09 03:15:08;;;;;;;6.05;2.20;;;;;;;;;;5052884;28;20033;-60
2023/10/09 03:17:34;;;;;;;8.75;2.55;;;;;;;;;;5053203;28;20047;-60
2023/10/09 03:20:11;;;;;;;5.05;2.25;;;;;;;;;;5053124;28;20021;-60
2023/10/09 03:22:37;;;;;;;6.93;2.30;;;;;;;;;;5053517;28;20103;-60
2023/10/09 03:25:11;;;;;;;9.93;2.28;;;;;;;;;;5052914;28;20029;-60
2023/10/09 03:27:37;;;;;;;8.25;2.53;;;;;;;;;;5053389;28;20017;-60
2023/10/09 03:30:05;;;;;;;6.10;2.58;;;;;;;;;;5053014;28;20090;-60
2023/10/09 03:32:31;;;;;;;7.20;2.97;;;;;;;;;;5052727;28;20032;-60
2023/10/09 03:34:59;;;;;;;7.35;2.90;;;;;;;;;;5053405;28;20143;-60
2023/10/09 03:37:34;;;;;;;8.85;3.33;;;;;;;;;;5056868;28;20032;-60
2023/10/09 03:40:00;;;;;;;12.07;2.67;;;;;;;;;;5056867;28;20028;-60
2023/10/09 03:42:26;;;;;;;9.63;3.10;;;;;;;;;;5055991;28;20025;-60
2023/10/09 03:44:53;;;;;;;11.88;3.55;;;;;;;;;;5056202;28;20363;-60
2023/10/09 03:47:22;;;;;;;6.82;2.55;;;;;;;;;;5056912;28;20028;-60
2023/10/09 03:49:51;;;;;;;7.15;3.03;;;;;;;;;;5056938;28;20067;-60
2023/10/09 03:52:18;;;;;;;6.40;3.03;;;;;;;;;;5056022;28;20017;-60
2023/10/09 03:54:46;;;;;;;7.03;2.75;;;;;;;;;;5055875;28;20025;-60
2023/10/09 03:57:18;;;;;;;8.57;2.47;;;;;;;;;;5056463;28;20037;-60
2023/10/09 03:59:46;;;;;;;7.97;3.33;;;;;;;;;;5055818;28;20021;-60
2023/10/09 04:02:12;;;;;;;7.20;3.03;;;;;;;;;;5056744;28;20025;-60
2023/10/09 04:04:38;;;;;;;7.25;3.47;;;;;;;;;;5056185;28;20025;-60
2023/10/09 04:07:07;;;;;;;10.65;3.47;;;;;;;;;;5056089;28;20108;-60
2023/10/09 04:09:39;;;;;;;8.77;3.55;;;;;;;;;;5056640;28;20109;-60
2023/10/09 04:14:47;;;;;;;7.13;3.60;;;;;;;;;;5056042;28;20073;-59
2023/10/09 04:19:48;;;;;;;10.52;3.55;;;;;;;;;;5055721;28;20064;-60
2023/10/09 04:22:27;;;;;;;7.90;3.13;;;;;;;;;;5056132;28;20021;-60
2023/10/09 04:24:53;;;;;;;6.57;3.67;;;;;;;;;;5055236;28;20036;-60
2023/10/09 04:27:26;;;;;;;14.75;3.55;;;;;;;;;;5055534;28;20096;-60
2023/10/09 04:29:54;;;;;;;5.57;2.20;;;;;;;;;;5055523;28;20017;-60
2023/10/09 04:32:24;;;;;;;9.20;3.45;;;;;;;;;;5055561;28;20374;-60
2023/10/09 04:34:56;;;;;;;10.40;3.17;;;;;;;;;;5055466;28;20228;-60
2023/10/09 04:40:41;;;;;;;5.75;2.83;;;;;;;;;;5054034;28;20486;-60
2023/10/09 04:43:06;;;;;;;7.95;3.55;;;;;;;;;;5054797;28;20498;-60
2023/10/09 04:45:59;;;;;;;10.25;3.25;;;;;;;;;;5055154;28;20025;-60
2023/10/09 04:48:38;;;;;;;8.85;2.72;;;;;;;;;;5054955;28;20471;-60
2023/10/09 04:51:34;;;;;;;7.70;3.03;;;;;;;;;;5055360;28;20021;-60
2023/10/09 04:54:12;;;;;;;6.80;2.97;;;;;;;;;;5055479;28;20083;-60
2023/10/09 04:56:51;;;;;;;7.97;3.65;;;;;;;;;;5055507;28;20033;-60
2023/10/09 04:59:18;;;;;;;6.13;2.42;;;;;;;;;;5054970;28;20485;-60
2023/10/09 05:01:46;;;;;;;4.95;2.47;;;;;;;;;;5054762;28;20444;-60
2023/10/09 05:04:34;;;;;;;7.20;2.88;;;;;;;;;;5054687;28;20021;-60
2023/10/09 05:07:15;;;;;;;9.57;3.45;;;;;;;;;;5055283;28;20225;-60
2023/10/09 05:09:55;;;;;;;6.00;2.83;;;;;;;;;;5054812;28;20025;-60
2023/10/09 05:12:26;;;;;;;5.38;2.17;;;;;;;;;;5054979;28;20028;-60
2023/10/09 05:15:08;;;;;;;3.08;1.63;;;;;;;;;;5054561;28;20029;-60
2023/10/09 05:17:35;;;;;;;9.73;3.08;;;;;;;;;;5055188;28;20036;-60
2023/10/09 05:22:56;;;;;;;5.28;2.65;;;;;;;;;;5054612;28;20075;-60
2023/10/09 05:25:53;;;;;;;5.32;2.72;;;;;;;;;;5054604;28;20434;-60
2023/10/09 05:31:15;;;;;;;7.03;3.28;;;;;;;;;;5054133;28;20549;-60
2023/10/09 05:33:45;;;;;;;6.25;2.47;;;;;;;;;;5054305;28;20029;-60
2023/10/09 05:36:31;;;;;;;9.65;2.70;;;;;;;;;;5053681;28;20102;-60
2023/10/09 05:39:17;;;;;;;6.00;2.65;;;;;;;;;;5054692;28;20052;-60
2023/10/09 05:41:52;;;;;;;6.35;2.38;;;;;;;;;;5054614;28;20370;-60
2023/10/09 05:49:54;;;;;;;4.45;2.15;;;;;;;;;;5054317;28;20028;-60
2023/10/09 05:52:42;;;;;;;7.63;2.25;;;;;;;;;;5054761;28;20096;-60
2023/10/09 05:55:20;;;;;;;11.50;2.97;;;;;;;;;;5054267;28;20122;-60
2023/10/09 06:14:04;;;;;;;5.88;2.22;;;;;;;;;;5053570;28;20044;-60
2023/10/09 06:16:59;;;;;;;7.20;2.53;;;;;;;;;;5053287;28;20033;-60
2023/10/09 06:19:26;;;;;;;5.03;2.65;;;;;;;;;;5053689;28;20033;-60
2023/10/09 06:24:28;;;;;;;6.85;2.95;;;;;;;;;;5053670;28;20387;-60
2023/10/09 06:29:36;;;;;;;7.97;2.50;;;;;;;;;;5053363;28;20061;-60
2023/10/09 06:35:15;;;;;;;5.88;2.97;;;;;;;;;;5053101;28;20196;-60
2023/10/09 06:43:26;;;;;;;6.55;2.35;;;;;;;;;;5053406;28;20131;-60
2023/10/09 06:46:37;;;;;;;8.88;2.42;;;;;;;;;;5053888;28;20478;-60
2023/10/09 06:48:45;;;;;;;6.55;2.55;;;;;;;;;;5052859;28;20042;-60
2023/10/09 06:56:30;;;;;;;5.97;2.10;;;;;;;;;;5053246;28;20073;-60
2023/10/09 06:58:57;;;;;;;7.95;2.55;;;;;;;;;;5053151;28;20025;-60
2023/10/09 07:06:51;;;;;;;7.68;2.70;;;;;;;;;;5053508;28;20486;-60
2023/10/09 07:09:19;;;;;;;6.25;2.90;;;;;;;;;;5053592;28;20028;-60
2023/10/09 07:16:57;;;;;;;4.95;2.97;;;;;;;;;;5057201;28;20061;-60
2023/10/09 07:19:43;;;;;;;6.20;2.63;;;;;;;;;;5056835;28;20017;-60
2023/10/09 07:38:14;;;;;;;9.77;2.38;;;;;;;;;;5056702;28;20071;-60
2023/10/09 07:41:33;;;;;;;4.18;2.25;;;;;;;;;;5056973;28;20456;-60
2023/10/09 07:43:45;;;;;;;4.88;1.98;;;;;;;;;;5056061;28;20064;-60
2023/10/09 07:46:32;;;;;;;8.20;2.00;;;;;;;;;;5056264;28;20045;-60
2023/10/09 07:49:08;;;;;;;7.07;2.53;;;;;;;;;;5056820;28;20021;-60
2023/10/09 07:51:36;;;;;;;4.13;2.25;;;;;;;;;;5056279;28;20049;-60
2023/10/09 07:54:08;;;;;;;7.20;2.10;;;;;;;;;;5055755;28;20024;-60
2023/10/09 07:56:46;;;;;;;6.40;2.25;;;;;;;;;;5056595;28;20021;-60
2023/10/09 07:59:13;;;;;;;4.10;2.28;;;;;;;;;;5056177;28;20030;-60
2023/10/09 08:01:54;;;;;;;6.45;1.83;;;;;;;;;;5055673;28;20028;-60
2023/10/09 08:04:37;;;;;;;4.78;1.65;;;;;;;;;;5056472;28;20055;-60
2023/10/09 08:07:07;;;;;;;4.20;2.05;;;;;;;;;;5056622;28;20421;-60
2023/10/09 08:09:48;;;;;;;5.90;2.25;;;;;;;;;;5055956;28;20083;-60
2023/10/09 08:12:59;;;;;;;3.30;1.88;;;;;;;;;;5056010;28;20021;-60
2023/10/09 08:17:50;;;;;;;7.75;3.83;;;;;;;;;;5056010;28;20033;-60
2023/10/09 08:20:17;;;;;;;5.45;2.42;;;;;;;;;;5056425;28;20029;-60
2023/10/09 08:22:43;;;;;;;5.65;3.03;;;;;;;;;;5055736;28;20031;-60
2023/10/09 08:27:58;;;;;;;8.65;2.55;;;;;;;;;;5055566;28;20028;-60
2023/10/09 08:33:00;;;;;;;5.93;2.72;;;;;;;;;;5055482;28;20456;-60
2023/10/09 08:35:48;;;;;;;6.97;2.05;;;;;;;;;;5055231;28;20055;-60
2023/10/09 08:38:17;;;;;;;9.88;1.92;;;;;;;;;;5055708;28;20535;-60
2023/10/09 08:40:43;;;;;;;5.88;3.00;;;;;;;;;;5055861;28;20040;-60
2023/10/09 08:43:19;;;;;;;7.13;2.35;;;;;;;;;;5055795;28;20029;-60
2023/10/09 08:46:00;;;;;;;5.95;2.55;;;;;;;;;;5055637;28;20466;-60
2023/10/09 08:48:27;;;;;;;10.70;2.65;;;;;;;;;;5055728;28;20025;-60
2023/10/09 08:50:54;;;;;;;3.75;2.03;;;;;;;;;;5055610;28;20025;-60
2023/10/09 08:53:20;;;;;;;7.55;2.45;;;;;;;;;;5054656;28;20482;-60
2023/10/09 08:55:47;;;;;;;5.95;2.47;;;;;;;;;;5054912;28;20036;-60
2023/10/09 08:58:24;;;;;;;8.73;1.75;;;;;;;;;;5054580;28;20462;-60
2023/10/09 09:00:51;;;;;;;8.82;3.17;;;;;;;;;;5055343;28;20104;-60
2023/10/09 09:03:18;;;;;;;7.90;2.20;;;;;;;;;;5055398;28;20029;-60
2023/10/09 09:05:49;;;;;;;9.70;2.50;;;;;;;;;;5054759;28;20033;-60
2023/10/09 09:08:31;;;;;;;12.50;2.22;;;;;;;;;;5054375;28;20483;-60
2023/10/09 09:11:11;;;;;;;6.22;2.22;;;;;;;;;;5055262;28;20021;-60
2023/10/09 09:13:37;;;;;;;12.07;2.42;;;;;;;;;;5055189;28;20028;-60
2023/10/09 09:16:03;;;;;;;4.57;1.98;;;;;;;;;;5054278;28;20032;-60
2023/10/09 09:18:36;;;;;;;5.78;1.85;;;;;;;;;;5055026;28;20112;-60
2023/10/09 09:21:21;;;;;;;4.40;1.40;;;;;;;;;;5054755;28;20032;-60
2023/10/09 09:23:54;;;;;;;4.32;2.00;;;;;;;;;;5054415;28;20028;-60
2023/10/09 09:26:37;;;;;;;8.23;2.50;;;;;;;;;;5054305;28;20489;-60
2023/10/09 09:29:03;;;;;;;7.85;1.58;;;;;;;;;;5055088;28;20112;-60
2023/10/09 09:31:37;;;;;;;8.85;3.13;;;;;;;;;;5054514;28;20028;-60
2023/10/09 09:34:04;;;;;;;3.10;2.17;;;;;;;;;;5054068;28;20033;-60
2023/10/09 09:36:34;;;;;;;5.57;2.22;;;;;;;;;;5054564;28;20021;-60
2023/10/09 09:39:01;;;;;;;9.02;2.25;;;;;;;;;;5054704;28;20053;-60
2023/10/09 09:41:27;;;;;;;10.73;2.17;;;;;;;;;;5055007;28;20071;-60
2023/10/09 09:44:02;;;;;;;9.45;3.17;;;;;;;;;;5054013;28;20060;-60
2023/10/09 09:46:34;;;;;;;4.22;1.88;;;;;;;;;;5054850;28;20021;-60
2023/10/09 09:49:01;;;;;;;9.10;2.80;;;;;;;;;;5054039;28;20025;-60
2023/10/09 09:51:30;;;;;;;9.27;2.55;;;;;;;;;;5054515;28;20023;-60
2023/10/09 09:53:57;;;;;;;8.13;2.47;;;;;;;;;;5053756;28;20108;-60
2023/10/09 09:56:25;;;;;;;8.20;2.85;;;;;;;;;;5054594;28;20024;-60
2023/10/09 09:58:56;;;;;;;10.73;2.90;;;;;;;;;;5053268;28;20486;-60
2023/10/09 10:01:25;;;;;;;5.75;2.63;;;;;;;;;;5053752;28;20052;-60
2023/10/09 10:04:21;;;;;;;5.65;2.70;;;;;;;;;;5053742;28;20025;-60
2023/10/09 10:06:49;;;;;;;6.82;2.70;;;;;;;;;;5045278;28;20060;-60
2023/10/09 10:09:38;;;;;;;6.22;2.50;;;;;;;;;;5053593;28;20029;-60
2023/10/09 10:12:09;;;;;;;7.82;2.30;;;;;;;;;;5053985;28;20067;-60
2023/10/09 10:14:52;;;;;;;7.32;2.22;;;;;;;;;;5054134;28;20033;-61
2023/10/09 10:17:21;;;;;;;4.75;2.58;;;;;;;;;;5054100;28;20340;-60
2023/10/09 10:20:25;;;;;;;5.85;2.22;;;;;;;;;;5054068;28;20135;-60
2023/10/09 10:22:47;;;;;;;9.43;2.65;;;;;;;;;;5053429;28;20036;-60
2023/10/09 10:25:35;;;;;;;10.25;2.72;;;;;;;;;;5053796;28;20363;-61
2023/10/09 10:28:38;;;;;;;9.23;2.88;;;;;;;;;;5053876;28;20021;-60
2023/10/09 10:31:09;;;;;;;3.58;1.88;;;;;;;;;;5053908;28;20031;-61
2023/10/09 10:33:54;;;;;;;11.07;2.22;;;;;;;;;;5053933;28;20060;-61
2023/10/09 10:36:23;;;;;;;8.65;2.70;;;;;;;;;;5053361;28;20055;-60
2023/10/09 10:41:54;;;;;;;7.90;2.38;;;;;;;;;;5052192;28;20033;-60
2023/10/09 10:44:41;;;;;;;3.70;2.05;;;;;;;;;;5053549;28;20123;-60
2023/10/09 10:47:22;;;;;;;5.07;2.78;;;;;;;;;;5057550;28;20528;-60
2023/10/09 10:49:50;;;;;;;7.60;2.70;;;;;;;;;;5057382;28;20463;-60
2023/10/09 10:52:35;;;;;;;7.82;2.47;;;;;;;;;;5058102;28;20025;-61
2023/10/09 10:58:00;;;;;;;8.13;2.85;;;;;;;;;;5057520;28;20459;-60
2023/10/09 11:03:29;;;;;;;5.00;2.38;;;;;;;;;;5057448;28;20083;-61
2023/10/09 11:05:55;;;;;;;4.93;2.75;;;;;;;;;;5057036;28;20064;-61
2023/10/09 11:08:27;;;;;;;10.02;2.90;;;;;;;;;;5056998;28;20063;-60
2023/10/09 11:10:54;;;;;;;4.35;2.40;;;;;;;;;;5057610;28;20056;-60
2023/10/09 11:13:31;;;;;;;8.73;3.28;;;;;;;;;;5056927;28;20024;-60
2023/10/09 11:16:14;;;;;;;15.77;3.97;;;;;;;;;;5057728;28;20418;-60
2023/10/09 11:18:45;;;;;;;9.50;3.35;;;;;;;;;;5057666;28;20029;-60
2023/10/09 11:23:53;;;;;;;8.00;2.85;;;;;;;;;;5056824;28;20029;-61
2023/10/09 11:26:28;;;;;;;8.80;3.60;;;;;;;;;;5057309;28;20029;-60
2023/10/09 11:29:23;;;;;;;17.33;3.35;;;;;;;;;;5056605;28;20021;-60
2023/10/09 11:32:01;;;;;;;9.02;2.88;;;;;;;;;;5057488;28;20159;-60
2023/10/09 11:34:31;;;;;;;14.98;4.28;;;;;;;;;;5056408;28;20139;-61
2023/10/09 11:36:58;;;;;;;;;;;;;;;;;;5056998;28;20463;-61
2023/10/09 11:39:31;;;;;;;4.60;2.00;;;;;;;;;;5056555;28;19909;-61
2023/10/09 11:42:07;;;;;;;15.35;3.40;;;;;;;;;;5057028;28;20029;-61
2023/10/09 11:44:55;;;;;;;8.27;2.95;;;;;;;;;;5056892;28;20170;-61
2023/10/09 11:50:11;;;;;;;8.10;2.30;;;;;;;;;;5056649;28;20029;-61
2023/10/09 11:53:08;;;;;;;9.48;2.95;;;;;;;;;;5056339;28;20027;-60
2023/10/09 11:55:35;;;;;;;8.98;2.83;;;;;;;;;;5055859;28;20021;-61
2023/10/09 11:58:02;;;;;;;5.63;2.92;;;;;;;;;;5056043;28;20029;-60
2023/10/09 12:00:41;;;;;;;6.70;2.28;;;;;;;;;;5056663;28;20017;-61
2023/10/09 12:03:07;;;;;;;6.63;3.05;;;;;;;;;;5056419;28;20021;-60
2023/10/09 12:05:33;;;;;;;7.65;2.50;;;;;;;;;;5056462;28;20108;-61
2023/10/09 12:08:01;;;;;;;8.25;2.58;;;;;;;;;;5055943;28;20025;-61
2023/10/09 12:10:27;;;;;;;13.43;3.17;;;;;;;;;;5056239;28;20029;-61
2023/10/09 12:12:53;;;;;;;5.45;2.28;;;;;;;;;;5056342;28;20021;-61
2023/10/09 12:15:20;;;;;;;4.43;2.67;;;;;;;;;;5056071;28;20065;-61
2023/10/09 12:17:47;;;;;;;10.98;2.85;;;;;;;;;;5056528;28;20033;-61
2023/10/09 12:20:32;;;;;;;7.22;2.30;;;;;;;;;;5056320;28;20104;-61
2023/10/09 12:23:04;;;;;;;8.18;2.88;;;;;;;;;;5056306;28;20413;-61
2023/10/09 12:25:31;;;;;;;14.15;3.80;;;;;;;;;;5056320;28;20095;-61
2023/10/09 12:27:57;;;;;;;4.15;1.98;;;;;;;;;;5055465;28;20047;-61
2023/10/09 12:30:29;;;;;;;8.73;2.75;;;;;;;;;;5055584;28;20529;-61
2023/10/09 12:32:57;;;;;;;12.35;3.63;;;;;;;;;;5055512;28;20112;-61
2023/10/09 12:35:24;;;;;;;14.70;3.83;;;;;;;;;;5055961;28;20068;-60
2023/10/09 12:37:50;;;;;;;7.15;3.10;;;;;;;;;;5055916;28;20036;-61
2023/10/09 12:40:23;;;;;;;12.90;3.40;;;;;;;;;;5056201;28;20029;-61
2023/10/09 12:42:50;;;;;;;8.10;2.95;;;;;;;;;;5055258;28;20451;-58
2023/10/09 12:45:17;;;;;;;12.57;3.00;;;;;;;;;;5055382;28;20370;-58
2023/10/09 12:47:43;;;;;;;8.23;3.17;;;;;;;;;;5055105;28;20383;-59
2023/10/09 12:50:13;;;;;;;12.80;3.35;;;;;;;;;;5056019;28;20081;-59
2023/10/09 12:52:39;;;;;;;7.45;3.63;;;;;;;;;;5055295;28;20029;-59
2023/10/09 12:55:07;;;;;;;11.10;3.60;;;;;;;;;;5055360;28;20038;-59
2023/10/09 12:57:34;;;;;;;6.43;3.22;;;;;;;;;;5055567;28;20033;-59
2023/10/09 13:00:00;;;;;;;7.95;3.72;;;;;;;;;;5055337;28;20363;-59
2023/10/09 13:02:29;;;;;;;7.07;3.15;;;;;;;;;;5052621;28;20100;-59
2023/10/09 13:04:55;;;;;;;12.40;3.28;;;;;;;;;;5054737;28;20025;-59
2023/10/09 13:07:22;;;;;;;4.90;2.70;;;;;;;;;;5054310;28;20470;-59
2023/10/09 13:10:08;;;;;;;7.95;3.28;;;;;;;;;;5055378;28;20025;-59
2023/10/09 13:12:38;;;;;;;5.43;2.88;;;;;;;;;;5055223;28;20025;-59
2023/10/09 13:15:08;;;;;;;5.38;2.47;;;;;;;;;;5055166;28;20459;-59
2023/10/09 13:17:36;;;;;;;9.90;3.45;;;;;;;;;;5054927;28;20149;-59
2023/10/09 13:20:03;;;;;;;5.13;2.60;;;;;;;;;;5055706;28;20032;-59
2023/10/09 13:22:30;;;;;;;5.40;3.33;;;;;;;;;;5054513;28;20032;-59
2023/10/09 13:25:03;;;;;;;4.85;3.00;;;;;;;;;;5055273;28;20031;-59
2023/10/09 13:27:34;;;;;;;6.00;3.30;;;;;;;;;;5055211;28;20407;-59
2023/10/09 13:30:05;;;;;;;;;;;;;;;;;;5055374;28;20426;-59
2023/10/09 13:32:33;;;;;;;6.55;3.47;;;;;;;;;;5054844;28;19905;-59
2023/10/09 13:35:02;;;;;;;7.93;4.45;;;;;;;;;;5054532;28;20053;-59
2023/10/09 13:37:30;;;;;;;6.95;4.35;;;;;;;;;;5054701;28;20027;-59
2023/10/09 13:39:57;;;;;;;6.82;4.05;;;;;;;;;;5055569;28;20056;-59
2023/10/09 13:42:26;;;;;;;5.50;3.08;;;;;;;;;;5054678;28;20033;-59
2023/10/09 13:44:53;;;;;;;7.38;4.50;;;;;;;;;;5053679;28;20475;-59
2023/10/09 13:47:20;;;;;;;17.35;4.53;;;;;;;;;;5053980;28;20032;-59
2023/10/09 13:49:50;;;;;;;16.23;4.35;;;;;;;;;;5054049;28;20485;-58
2023/10/09 13:52:18;;;;;;;8.25;4.28;;;;;;;;;;5053943;28;20494;-60
2023/10/09 13:54:48;;;;;;;8.55;3.83;;;;;;;;;;5053841;28;20069;-59
2023/10/09 13:57:15;;;;;;;8.40;3.65;;;;;;;;;;5053529;28;20542;-59
2023/10/09 13:59:49;;;;;;;6.20;3.40;;;;;;;;;;5053876;28;20040;-59
2023/10/09 14:02:18;;;;;;;7.78;3.92;;;;;;;;;;5054300;28;20417;-60
2023/10/09 14:04:46;;;;;;;7.32;4.05;;;;;;;;;;5053385;28;20532;-59
2023/10/09 14:07:16;;;;;;;5.85;3.20;;;;;;;;;;5053377;28;20116;-61
2023/10/09 14:09:54;;;;;;;6.22;3.78;;;;;;;;;;5054532;28;20053;-60
2023/10/09 14:12:21;;;;;;;9.68;3.90;;;;;;;;;;5054074;28;20029;-60
2023/10/09 14:14:48;;;;;;;5.65;3.22;;;;;;;;;;5052733;28;20032;-60
2023/10/09 14:17:14;;;;;;;8.88;3.22;;;;;;;;;;5054143;28;20476;-60
2023/10/09 14:19:50;;;;;;;4.47;2.70;;;;;;;;;;5053814;28;20031;-60
2023/10/09 14:22:24;;;;;;;6.10;4.03;;;;;;;;;;5054094;28;20029;-60
2023/10/09 14:24:56;;;;;;;9.60;3.83;;;;;;;;;;5053851;28;20028;-61
2023/10/09 14:27:29;;;;;;;4.93;3.35;;;;;;;;;;5054364;28;20029;-60
2023/10/09 14:29:56;;;;;;;10.63;3.53;;;;;;;;;;5053955;28;20040;-60
2023/10/09 14:32:29;;;;;;;6.88;3.78;;;;;;;;;;5053459;28;20374;-60
2023/10/09 14:35:00;;;;;;;6.85;3.78;;;;;;;;;;5053126;28;20092;-60
2023/10/09 14:37:26;;;;;;;5.10;3.58;;;;;;;;;;5054211;28;20104;-60
2023/10/09 14:39:52;;;;;;;4.95;3.47;;;;;;;;;;5053531;28;20017;-60
2023/10/09 14:42:20;;;;;;;5.53;3.05;;;;;;;;;;5053344;28;20108;-60
2023/10/09 14:44:46;;;;;;;10.05;4.50;;;;;;;;;;5053403;28;20032;-60
2023/10/09 14:47:14;;;;;;;9.15;4.00;;;;;;;;;;5053056;28;20017;-60
2023/10/09 14:49:46;;;;;;;5.40;3.83;;;;;;;;;;5054215;28;20025;-60
2023/10/09 14:52:16;;;;;;;5.28;3.78;;;;;;;;;;5053564;28;20025;-60
2023/10/09 14:54:42;;;;;;;6.30;4.07;;;;;;;;;;5053751;28;20029;-60
2023/10/09 14:57:11;;;;;;;8.60;4.35;;;;;;;;;;5053540;28;20509;-60
2023/10/09 14:59:37;;;;;;;12.10;3.72;;;;;;;;;;5053992;28;20092;-60
2023/10/09 15:02:05;;;;;;;10.20;4.00;;;;;;;;;;5052833;28;20025;-60
2023/10/09 15:04:31;;;;;;;4.57;3.05;;;;;;;;;;5053121;28;20037;-60
2023/10/09 15:06:57;;;;;;;11.77;3.67;;;;;;;;;;5053658;28;20017;-60
2023/10/09 15:09:24;;;;;;;8.35;4.03;;;;;;;;;;5053663;28;20025;-60
2023/10/09 15:11:51;;;;;;;6.80;3.85;;;;;;;;;;5053370;28;20036;-60
2023/10/09 15:14:20;;;;;;;7.60;4.18;;;;;;;;;;5053800;28;20150;-60
2023/10/09 15:16:46;;;;;;;8.55;4.30;;;;;;;;;;5053048;28;20051;-60
2023/10/09 15:19:13;;;;;;;8.75;3.90;;;;;;;;;;5052990;28;20459;-60
2023/10/09 15:21:45;;;;;;;7.13;3.67;;;;;;;;;;5053070;28;20021;-60
2023/10/09 15:24:15;;;;;;;5.57;3.05;;;;;;;;;;5053852;28;20025;-60
2023/10/09 15:26:41;;;;;;;6.53;3.75;;;;;;;;;;5052748;28;20036;-60
2023/10/09 15:29:09;;;;;;;8.07;4.15;;;;;;;;;;5053070;28;20025;-60
2023/10/09 15:31:35;;;;;;;8.93;3.42;;;;;;;;;;5055265;28;20031;-60
2023/10/09 15:34:01;;;;;;;4.78;3.05;;;;;;;;;;5056388;28;20096;-60
2023/10/09 15:36:31;;;;;;;5.65;3.75;;;;;;;;;;5056525;28;20112;-60
2023/10/09 15:39:00;;;;;;;7.53;4.07;;;;;;;;;;5057076;28;20035;-60
2023/10/09 15:41:30;;;;;;;5.93;3.95;;;;;;;;;;5056453;28;20039;-60
2023/10/09 15:43:57;;;;;;;9.73;3.50;;;;;;;;;;5056598;28;20043;-60
2023/10/09 15:46:23;;;;;;;7.80;4.00;;;;;;;;;;5056239;28;20017;-60
2023/10/09 15:48:51;;;;;;;4.65;3.38;;;;;;;;;;5056827;28;20448;-60
2023/10/09 15:51:17;;;;;;;7.25;4.50;;;;;;;;;;5056810;28;20029;-60
2023/10/09 15:53:46;;;;;;;7.32;3.05;;;;;;;;;;5056761;28;20471;-60
2023/10/09 15:56:13;;;;;;;5.75;3.42;;;;;;;;;;5056308;28;20471;-60
2023/10/09 15:58:43;;;;;;;4.10;2.80;;;;;;;;;;5056295;28;20032;-60
2023/10/09 16:01:12;;;;;;;8.32;3.80;;;;;;;;;;5056648;28;20025;-60
2023/10/09 16:03:38;;;;;;;5.03;3.25;;;;;;;;;;5056018;28;20116;-60
2023/10/09 16:06:05;;;;;;;4.70;3.08;;;;;;;;;;5055725;28;20074;-60
2023/10/09 16:08:31;;;;;;;7.50;3.13;;;;;;;;;;5055893;28;20104;-60
2023/10/09 16:10:58;;;;;;;6.13;3.78;;;;;;;;;;5056494;28;20040;-60
2023/10/09 16:13:27;;;;;;;6.07;3.97;;;;;;;;;;5055544;28;20463;-60
2023/10/09 16:15:56;;;;;;;6.70;3.60;;;;;;;;;;5056164;28;20037;-60
2023/10/09 16:18:22;;;;;;;10.88;4.18;;;;;;;;;;5055515;28;20439;-60
2023/10/09 16:20:49;;;;;;;10.23;3.95;;;;;;;;;;5056212;28;20082;-60
2023/10/09 16:23:15;;;;;;;6.60;3.35;;;;;;;;;;5055480;28;20029;-60
2023/10/09 16:25:41;;;;;;;8.68;3.97;;;;;;;;;;5055478;28;20023;-60
2023/10/09 16:28:08;;;;;;;6.03;3.78;;;;;;;;;;5055454;28;20013;-60
2023/10/09 16:30:35;;;;;;;14.05;4.03;;;;;;;;;;5055666;28;20532;-60
2023/10/09 16:33:04;;;;;;;8.00;3.90;;;;;;;;;;5055342;28;20427;-60
2023/10/09 16:35:34;;;;;;;8.88;3.85;;;;;;;;;;5055235;28;20386;-60
2023/10/09 16:38:02;;;;;;;6.50;3.72;;;;;;;;;;5055251;28;20036;-60
2023/10/09 16:40:28;;;;;;;5.97;3.10;;;;;;;;;;5055854;28;20033;-60
2023/10/09 16:42:53;;;;;;;7.25;3.60;;;;;;;;;;5053686;28;20021;-60
2023/10/09 16:45:19;;;;;;;7.55;3.95;;;;;;;;;;5055689;28;20432;-60
2023/10/09 16:47:46;;;;;;;8.65;3.97;;;;;;;;;;5055968;28;20103;-61
2023/10/09 16:50:15;;;;;;;9.25;3.92;;;;;;;;;;5055029;28;20033;-60
2023/10/09 16:52:41;;;;;;;6.43;3.03;;;;;;;;;;5054830;28;20021;-60
2023/10/09 16:55:10;;;;;;;5.82;3.35;;;;;;;;;;5055560;28;20104;-60
2023/10/09 16:57:39;;;;;;;6.70;4.47;;;;;;;;;;5055557;28;20044;-60
2023/10/09 17:00:12;;;;;;;14.98;3.97;;;;;;;;;;5054935;28;20045;-60